Time;durP1;ratioP1;P1;durP2;ratioP2;P2;SDS_P1;SDS_P2;PMS_P1;PMS_P2;Temp;Humidity;BMP_temperature;BMP_pressure;BME280_temperature;BME280_humidity;BME280_pressure;Samples;Min_cycle;Max_cycle;Signal;HPM_P1;HPM_P2
2021/11/05 00:00:26;;;;;;;5.57;1.60;;;;;;;9.24;70.87;99705.19;5034062;28;20730;-86
2021/11/05 00:02:54;;;;;;;3.53;1.30;;;;;;;9.22;70.78;99705.28;5038520;28;20155;-87
2021/11/05 00:05:22;;;;;;;4.70;1.88;;;;;;;9.15;71.33;99704.75;5034251;28;20096;-87
2021/11/05 00:07:49;;;;;;;1.98;1.30;;;;;;;9.19;71.75;99708.88;5034401;28;20455;-87
2021/11/05 00:10:17;;;;;;;3.17;1.30;;;;;;;9.12;72.69;99706.69;5046943;28;20132;-87
2021/11/05 00:12:45;;;;;;;2.40;1.33;;;;;;;8.93;74.32;99710.25;5034108;28;20048;-87
2021/11/05 00:15:13;;;;;;;2.85;1.40;;;;;;;8.85;74.90;99707.22;5040947;28;20057;-87
2021/11/05 00:17:40;;;;;;;3.72;1.50;;;;;;;8.80;74.49;99709.19;5033997;28;20038;-88
2021/11/05 00:20:09;;;;;;;4.40;1.50;;;;;;;8.80;74.57;99711.81;5028362;28;20099;-88
2021/11/05 00:22:36;;;;;;;3.50;1.60;;;;;;;8.84;74.98;99713.34;5034377;28;20045;-87
2021/11/05 00:25:06;;;;;;;6.70;1.63;;;;;;;9.02;73.10;99718.50;5034588;28;20091;-87
2021/11/05 00:27:34;;;;;;;2.78;1.20;;;;;;;8.97;73.53;99712.69;5038597;28;20052;-87
2021/11/05 00:30:01;;;;;;;2.75;1.27;;;;;;;9.12;73.37;99719.69;5052721;28;20045;-86
2021/11/05 00:32:28;;;;;;;3.60;1.30;;;;;;;9.08;73.61;99710.38;5054032;28;20092;-86
2021/11/05 00:34:55;;;;;;;4.72;1.40;;;;;;;9.16;73.59;99719.47;5036756;28;20488;-87
2021/11/05 00:37:21;;;;;;;5.25;1.75;;;;;;;9.15;73.49;99735.97;5033912;28;20130;-87
2021/11/05 00:39:48;;;;;;;7.55;4.18;;;;;;;8.36;82.42;99733.06;5033640;28;20142;-87
2021/11/05 00:42:15;;;;;;;9.63;5.07;;;;;;;8.17;82.66;99741.78;5039655;28;20045;-87
2021/11/05 00:44:42;;;;;;;6.82;4.38;;;;;;;7.95;85.59;99741.97;5033854;28;20099;-86
2021/11/05 00:47:09;;;;;;;10.15;4.35;;;;;;;7.98;86.53;99747.81;5040410;28;20053;-89
2021/11/05 00:49:36;;;;;;;5.93;4.22;;;;;;;8.07;85.83;99743.97;5042800;28;20053;-86
2021/11/05 00:52:04;;;;;;;6.78;4.70;;;;;;;8.42;84.11;99752.69;5039716;28;20132;-86
2021/11/05 00:54:30;;;;;;;8.70;4.55;;;;;;;8.32;85.15;99756.63;5068046;28;20041;-84
2021/11/05 00:56:57;;;;;;;6.20;4.47;;;;;;;7.81;87.02;99750.38;5052350;28;20115;-86
2021/11/05 00:59:24;;;;;;;6.70;4.20;;;;;;;7.84;86.87;99745.06;5035664;28;20044;-85
2021/11/05 01:01:52;;;;;;;14.57;4.45;;;;;;;7.61;87.56;99748.69;5032110;28;20115;-85
2021/11/05 01:04:18;;;;;;;6.45;3.83;;;;;;;7.69;86.99;99746.59;5033635;28;20049;-86
2021/11/05 01:06:45;;;;;;;8.88;4.05;;;;;;;7.81;85.87;99751.22;5032256;28;20063;-86
2021/11/05 01:09:12;;;;;;;7.57;4.97;;;;;;;7.88;85.83;99756.94;5032935;28;20056;-85
2021/11/05 01:11:39;;;;;;;7.00;4.15;;;;;;;7.51;87.63;99774.22;5040614;28;20077;-85
2021/11/05 01:14:06;;;;;;;6.63;3.90;;;;;;;7.32;88.95;99768.16;5034962;28;20406;-85
2021/11/05 01:16:33;;;;;;;7.07;4.63;;;;;;;7.52;88.10;99767.28;5033507;28;20045;-85
2021/11/05 01:19:00;;;;;;;10.35;5.38;;;;;;;7.52;88.62;99777.66;5033357;28;20056;-86
2021/11/05 01:21:27;;;;;;;12.77;5.10;;;;;;;7.28;90.26;99771.78;5047899;28;20162;-86
2021/11/05 01:23:54;;;;;;;5.72;4.93;;;;;;;7.55;88.92;99774.91;5033864;28;20045;-86
2021/11/05 01:26:21;;;;;;;5.70;4.32;;;;;;;7.52;88.34;99781.09;5034279;28;20045;-85
2021/11/05 01:28:49;;;;;;;6.25;3.35;;;;;;;7.39;88.94;99781.69;5032547;28;20398;-86
2021/11/05 01:31:18;;;;;;;3.55;2.65;;;;;;;7.16;90.23;99778.38;5033093;28;20081;-86
2021/11/05 01:33:48;;;;;;;4.15;1.77;;;;;;;7.37;88.73;99773.16;5032498;28;20056;-85
2021/11/05 01:36:15;;;;;;;3.08;1.65;;;;;;;7.18;88.95;99776.53;5033229;28;20045;-85
2021/11/05 01:38:42;;;;;;;4.22;1.67;;;;;;;7.33;88.26;99782.81;5032689;28;20046;-88
2021/11/05 01:41:09;;;;;;;6.97;1.92;;;;;;;7.30;87.76;99770.84;5032730;28;20069;-88
2021/11/05 01:43:37;;;;;;;5.10;1.75;;;;;;;7.61;86.54;99780.66;5032940;28;20052;-86
2021/11/05 01:46:08;;;;;;;4.05;1.60;;;;;;;7.43;87.37;99781.50;5032711;28;20042;-87
2021/11/05 01:48:36;;;;;;;2.60;1.67;;;;;;;7.29;88.11;99776.91;5032552;28;20071;-87
2021/11/05 01:51:04;;;;;;;1.55;1.45;;;;;;;7.22;87.96;99772.91;5032575;28;20048;-87
2021/11/05 01:53:32;;;;;;;2.35;1.67;;;;;;;7.52;86.18;99781.09;5032834;28;20046;-87
2021/11/05 01:55:58;;;;;;;2.40;1.30;;;;;;;7.62;85.99;99784.13;5032125;28;20046;-87
2021/11/05 01:58:26;;;;;;;1.95;1.33;;;;;;;7.57;86.58;99778.31;5031239;28;20041;-87
2021/11/05 02:00:52;;;;;;;6.72;2.00;;;;;;;7.35;87.27;99779.25;5031933;28;20050;-87
2021/11/05 02:03:19;;;;;;;2.80;1.90;;;;;;;7.34;87.89;99782.72;5032781;28;20069;-87
2021/11/05 02:05:53;;;;;;;4.03;2.00;;;;;;;7.28;88.67;99783.00;5031981;28;20052;-88
2021/11/05 02:08:20;;;;;;;1.92;1.25;;;;;;;7.29;88.39;99779.50;5032716;28;20041;-86
2021/11/05 02:10:49;;;;;;;3.88;1.60;;;;;;;7.35;88.26;99787.03;5032889;28;20180;-85
2021/11/05 02:13:19;;;;;;;3.13;1.52;;;;;;;7.24;89.31;99781.44;5032169;28;20045;-85
2021/11/05 02:15:46;;;;;;;5.15;1.58;;;;;;;7.40;88.53;99786.81;5032101;28;20041;-85
2021/11/05 02:18:14;;;;;;;2.63;1.52;;;;;;;7.31;89.35;99787.22;5032024;28;20053;-85
2021/11/05 02:20:43;;;;;;;4.53;1.52;;;;;;;7.48;88.52;99783.88;5032020;28;20621;-86
2021/11/05 02:23:10;;;;;;;2.15;1.40;;;;;;;7.53;87.88;99792.31;5031750;28;20515;-85
2021/11/05 02:25:37;;;;;;;3.22;2.15;;;;;;;7.46;89.09;99788.31;5031954;28;20041;-85
2021/11/05 02:28:05;;;;;;;2.03;1.63;;;;;;;7.41;89.17;99779.91;5031896;28;20460;-86
2021/11/05 02:30:32;;;;;;;4.15;1.55;;;;;;;7.53;88.45;99780.19;5031903;28;20519;-85
2021/11/05 02:32:59;;;;;;;7.50;1.63;;;;;;;7.56;88.64;99786.97;5026290;28;20365;-85
2021/11/05 02:35:26;;;;;;;1.90;1.30;;;;;;;7.46;88.19;99786.56;5023552;28;20121;-85
2021/11/05 02:37:53;;;;;;;5.70;1.50;;;;;;;7.46;89.01;99785.72;5029578;28;20038;-86
2021/11/05 02:40:20;;;;;;;1.92;1.48;;;;;;;7.47;88.95;99784.81;5037052;28;20052;-86
2021/11/05 02:42:47;;;;;;;2.83;2.58;;;;;;;7.68;87.89;99780.41;5032825;28;20497;-86
2021/11/05 02:45:14;;;;;;;3.10;1.30;;;;;;;7.48;88.57;99773.53;5031527;28;20048;-86
2021/11/05 02:47:42;;;;;;;2.95;1.30;;;;;;;7.30;89.34;99782.97;5031917;28;20041;-85
2021/11/05 02:50:12;;;;;;;4.53;1.73;;;;;;;7.35;88.57;99784.44;5031233;28;20496;-86
2021/11/05 02:52:40;;;;;;;3.95;1.55;;;;;;;7.42;87.57;99791.94;5026254;28;20041;-85
2021/11/05 02:55:10;;;;;;;1.70;1.55;;;;;;;7.58;87.14;99787.75;5030556;28;20128;-85
2021/11/05 02:57:38;;;;;;;3.08;1.40;;;;;;;7.41;88.20;99791.09;5035713;28;20141;-86
2021/11/05 03:00:08;;;;;;;2.05;1.50;;;;;;;7.35;88.30;99784.44;5035289;28;20095;-86
2021/11/05 03:02:35;;;;;;;5.28;3.15;;;;;;;7.32;87.46;99788.91;5030284;28;20176;-85
2021/11/05 03:05:02;;;;;;;5.63;2.83;;;;;;;7.41;85.27;99790.28;5035691;28;20049;-86
2021/11/05 03:07:29;;;;;;;4.30;1.30;;;;;;;7.54;83.98;99794.00;5035080;28;20045;-85
2021/11/05 03:09:56;;;;;;;4.05;1.40;;;;;;;7.62;82.63;99794.50;5035780;28;20038;-86
2021/11/05 03:12:23;;;;;;;2.33;1.38;;;;;;;7.61;82.38;99797.97;5034967;28;20392;-85
2021/11/05 03:14:50;;;;;;;2.67;1.50;;;;;;;7.76;80.25;99799.88;5035304;28;20046;-86
2021/11/05 03:17:17;;;;;;;1.90;1.38;;;;;;;7.97;79.19;99799.81;5034902;28;20142;-86
2021/11/05 03:19:44;;;;;;;5.03;1.42;;;;;;;7.79;79.71;99810.13;5036573;28;20045;-87
2021/11/05 03:22:11;;;;;;;4.90;1.50;;;;;;;7.89;79.42;99813.16;5041763;28;20049;-86
2021/11/05 03:24:38;;;;;;;3.28;1.73;;;;;;;7.82;79.86;99830.75;5035269;28;20053;-85
2021/11/05 03:27:05;;;;;;;1.75;1.20;;;;;;;7.89;80.24;99826.13;5035120;28;20052;-86
2021/11/05 03:29:32;;;;;;;1.75;1.40;;;;;;;7.84;80.79;99825.50;5034773;28;20045;-86
2021/11/05 03:31:59;;;;;;;5.85;1.50;;;;;;;7.69;81.04;99826.19;5035055;28;20144;-86
2021/11/05 03:34:26;;;;;;;3.60;1.58;;;;;;;7.76;81.22;99831.03;5034693;28;20500;-86
2021/11/05 03:36:53;;;;;;;4.80;1.85;;;;;;;7.66;81.86;99834.94;5035436;28;20045;-89
2021/11/05 03:39:20;;;;;;;3.42;1.40;;;;;;;7.71;82.19;99832.13;5034306;28;20395;-86
2021/11/05 03:41:47;;;;;;;3.45;1.75;;;;;;;7.83;82.70;99842.00;5046497;28;20041;-86
2021/11/05 03:44:14;;;;;;;3.35;2.28;;;;;;;8.03;80.75;99834.13;5054570;28;20045;-85
2021/11/05 03:46:41;;;;;;;3.30;2.00;;;;;;;7.97;81.81;99839.59;5050625;28;20041;-85
2021/11/05 03:49:08;;;;;;;6.35;1.73;;;;;;;8.02;81.39;99841.97;5034679;28;20103;-84
2021/11/05 03:51:35;;;;;;;4.53;1.42;;;;;;;8.05;81.03;99841.84;5034657;28;20084;-85
2021/11/05 03:54:02;;;;;;;1.63;1.30;;;;;;;7.92;81.67;99844.16;5037805;28;20424;-85
2021/11/05 03:56:30;;;;;;;4.18;1.40;;;;;;;7.92;81.40;99835.53;5035322;28;20038;-85
2021/11/05 03:58:57;;;;;;;2.00;1.25;;;;;;;7.94;81.65;99844.09;5034844;28;20111;-85
2021/11/05 04:01:24;;;;;;;1.92;1.30;;;;;;;8.07;80.33;99856.44;5034193;28;20045;-84
2021/11/05 04:03:51;;;;;;;3.65;1.60;;;;;;;8.02;81.00;99853.19;5034929;28;20488;-85
2021/11/05 04:06:20;;;;;;;4.30;1.70;;;;;;;8.04;81.09;99869.56;5034977;28;20042;-85
2021/11/05 04:08:47;;;;;;;4.07;1.67;;;;;;;8.09;81.24;99861.53;5034934;28;20064;-85
2021/11/05 04:11:18;;;;;;;2.70;1.38;;;;;;;8.12;81.26;99869.19;5034829;28;20045;-85
2021/11/05 04:13:45;;;;;;;3.00;2.47;;;;;;;8.00;82.03;99869.78;5034938;28;20054;-85
2021/11/05 04:16:13;;;;;;;1.92;1.40;;;;;;;7.83;83.54;99870.53;5034841;28;20052;-85
2021/11/05 04:18:39;;;;;;;2.25;1.60;;;;;;;7.80;84.44;99868.91;5034158;28;20045;-87
2021/11/05 04:21:07;;;;;;;5.43;1.85;;;;;;;7.69;85.31;99881.50;5034755;28;20400;-87
2021/11/05 04:23:33;;;;;;;2.30;1.27;;;;;;;7.67;85.48;99875.56;5034529;28;20049;-87
2021/11/05 04:26:01;;;;;;;2.25;1.67;;;;;;;7.66;85.80;99871.25;5034826;28;20041;-88
2021/11/05 04:28:28;;;;;;;1.50;1.20;;;;;;;7.69;85.59;99876.31;5035140;28;20116;-87
2021/11/05 04:30:55;;;;;;;4.43;1.52;;;;;;;7.58;87.11;99878.53;5032727;28;20057;-86
2021/11/05 04:33:22;;;;;;;2.30;1.42;;;;;;;7.55;87.28;99876.06;5049641;28;20503;-86
2021/11/05 04:35:48;;;;;;;1.63;1.40;;;;;;;7.53;87.81;99883.94;5051186;28;20096;-87
2021/11/05 04:38:15;;;;;;;1.60;1.42;;;;;;;7.52;88.07;99887.44;5042831;28;20099;-86
2021/11/05 04:40:42;;;;;;;9.85;1.63;;;;;;;7.51;88.37;99890.94;5023605;28;20084;-86
2021/11/05 04:43:09;;;;;;;3.28;1.30;;;;;;;7.53;88.30;99885.69;5019755;28;20167;-87
2021/11/05 04:45:36;;;;;;;3.65;1.60;;;;;;;7.44;89.44;99899.03;5027053;28;20083;-87
2021/11/05 04:48:04;;;;;;;2.55;1.40;;;;;;;7.81;87.44;99887.91;5034649;28;20084;-87
2021/11/05 04:50:31;;;;;;;4.05;3.22;;;;;;;7.68;86.79;99899.75;5041795;28;20037;-87
2021/11/05 04:52:58;;;;;;;7.93;1.40;;;;;;;7.65;85.88;99900.72;5034609;28;20154;-88
2021/11/05 04:55:26;;;;;;;5.97;1.58;;;;;;;7.75;85.17;99898.56;5043495;28;20049;-87
2021/11/05 04:57:53;;;;;;;4.13;1.95;;;;;;;7.92;83.57;99903.00;5034091;28;20041;-89
2021/11/05 05:00:22;;;;;;;5.00;1.40;;;;;;;7.83;84.51;99899.91;5033197;28;20091;-86
2021/11/05 05:02:49;;;;;;;3.85;1.73;;;;;;;7.60;86.31;99906.09;5047006;28;20045;-86
2021/11/05 05:05:17;;;;;;;3.45;1.70;;;;;;;7.59;87.16;99911.34;5034243;28;20439;-86
2021/11/05 05:07:45;;;;;;;2.88;2.47;;;;;;;7.73;86.17;99905.59;5033767;28;20396;-86
2021/11/05 05:10:12;;;;;;;2.45;1.85;;;;;;;8.03;82.96;99913.75;5042648;28;20033;-86
2021/11/05 05:12:40;;;;;;;3.97;1.35;;;;;;;8.14;82.23;99914.09;5033432;28;20045;-85
2021/11/05 05:15:10;;;;;;;3.10;1.35;;;;;;;8.14;83.23;99909.75;5033361;28;20435;-86
2021/11/05 05:17:38;;;;;;;1.98;1.20;;;;;;;7.96;85.09;99912.34;5033346;28;20041;-85
2021/11/05 05:20:08;;;;;;;4.22;1.50;;;;;;;8.00;84.77;99916.50;5033800;28;20045;-86
2021/11/05 05:22:36;;;;;;;4.18;2.33;;;;;;;8.14;83.36;99914.09;5034316;28;20057;-86
2021/11/05 05:25:04;;;;;;;2.63;1.40;;;;;;;8.11;84.08;99914.25;5038144;28;20045;-86
2021/11/05 05:27:31;;;;;;;7.03;1.70;;;;;;;8.07;83.83;99912.69;5033433;28;20041;-86
2021/11/05 05:29:58;;;;;;;1.73;1.35;;;;;;;8.02;84.74;99909.47;5036547;28;20060;-86
2021/11/05 05:32:25;;;;;;;13.23;1.70;;;;;;;8.03;85.41;99913.75;5033017;28;20041;-86
2021/11/05 05:34:51;;;;;;;7.63;1.88;;;;;;;8.11;84.20;99914.25;5033250;28;20123;-86
2021/11/05 05:37:18;;;;;;;6.60;1.80;;;;;;;8.27;81.93;99922.19;5033787;28;20037;-86
2021/11/05 05:39:45;;;;;;;1.25;1.17;;;;;;;8.12;81.56;99921.13;5033069;28;20362;-85
2021/11/05 05:42:12;;;;;;;2.97;1.45;;;;;;;8.16;80.65;99922.69;5049308;28;20452;-85
2021/11/05 05:44:40;;;;;;;5.00;1.85;;;;;;;8.18;80.19;99928.63;5046010;28;20084;-85
2021/11/05 05:47:09;;;;;;;2.05;1.55;;;;;;;8.18;80.70;99931.22;5033413;28;20041;-85
2021/11/05 05:49:36;;;;;;;1.88;1.30;;;;;;;8.28;80.46;99929.06;5033022;28;20041;-85
2021/11/05 05:52:03;;;;;;;5.22;2.30;;;;;;;8.42;79.94;99934.50;5039509;28;20056;-85
2021/11/05 05:54:30;;;;;;;3.00;1.38;;;;;;;8.36;79.41;99940.84;5052673;28;20041;-85
2021/11/05 05:56:59;;;;;;;5.05;1.40;;;;;;;8.37;79.11;99946.88;5047853;28;20051;-85
2021/11/05 05:59:27;;;;;;;4.93;1.25;;;;;;;8.13;80.23;99948.78;5049587;28;20037;-84
2021/11/05 06:01:54;;;;;;;2.95;1.55;;;;;;;8.14;81.07;99960.84;5052177;28;20051;-85
2021/11/05 06:04:21;;;;;;;5.03;1.92;;;;;;;8.29;80.65;99948.91;5013127;28;20044;-85
2021/11/05 06:06:48;;;;;;;2.38;2.17;;;;;;;7.80;83.56;99961.47;5013088;28;20046;-85
2021/11/05 06:09:15;;;;;;;2.78;1.60;;;;;;;7.67;84.77;99961.16;5026443;28;20046;-85
2021/11/05 06:11:42;;;;;;;9.50;2.42;;;;;;;7.64;85.77;99965.63;5032526;28;20519;-84
2021/11/05 06:14:10;;;;;;;3.40;1.95;;;;;;;7.54;87.07;99971.19;5032785;28;20037;-85
2021/11/05 06:16:37;;;;;;;7.82;2.75;;;;;;;7.50;88.27;99976.56;5031216;28;20041;-88
2021/11/05 06:19:04;;;;;;;4.82;1.90;;;;;;;7.62;87.58;99978.69;5032753;28;20049;-87
2021/11/05 06:21:31;;;;;;;10.40;2.58;;;;;;;7.71;88.05;99983.47;5046579;28;20041;-85
2021/11/05 06:23:58;;;;;;;5.00;1.80;;;;;;;7.37;90.46;99984.03;5052019;28;20037;-86
2021/11/05 06:26:25;;;;;;;4.10;1.35;;;;;;;7.40;90.17;99978.69;5047886;28;20037;-85
2021/11/05 06:28:52;;;;;;;6.70;1.60;;;;;;;7.32;91.38;99992.00;5054755;28;20618;-86
2021/11/05 06:31:19;;;;;;;3.30;1.63;;;;;;;7.43;90.68;99998.50;5043144;28;20065;-87
2021/11/05 06:33:46;;;;;;;4.90;2.83;;;;;;;7.34;90.99;99992.75;5049480;28;20251;-86
2021/11/05 06:36:13;;;;;;;6.75;2.45;;;;;;;7.45;90.32;99994.06;5023044;28;20045;-86
2021/11/05 06:38:40;;;;;;;9.18;2.83;;;;;;;7.55;89.56;99998.81;5021632;28;20078;-84
2021/11/05 06:41:07;;;;;;;7.13;3.78;;;;;;;7.59;88.29;99997.78;5034428;28;20045;-83
2021/11/05 06:43:35;;;;;;;5.40;3.00;;;;;;;7.74;87.88;99998.06;5036871;28;20466;-84
2021/11/05 06:46:01;;;;;;;10.00;4.35;;;;;;;7.92;86.66;100014.59;5044843;28;20041;-86
2021/11/05 06:48:28;;;;;;;5.57;2.15;;;;;;;8.14;85.98;100012.75;5035825;28;20049;-89
2021/11/05 06:50:57;;;;;;;3.20;2.33;;;;;;;8.06;86.98;100014.88;5046296;28;20440;-89
2021/11/05 06:53:24;;;;;;;4.75;2.70;;;;;;;7.97;88.22;100020.44;5049664;28;20087;-87
2021/11/05 06:55:51;;;;;;;4.80;2.60;;;;;;;8.24;88.19;100024.44;5042385;28;20048;-87
2021/11/05 06:58:19;;;;;;;5.47;2.60;;;;;;;8.20;89.27;100032.41;5031161;28;20049;-82
2021/11/05 07:00:48;;;;;;;5.45;3.03;;;;;;;8.15;88.66;100035.25;5030450;28;20217;-84
2021/11/05 07:03:15;;;;;;;6.00;2.80;;;;;;;8.22;89.04;100035.81;5032065;28;20398;-90
2021/11/05 07:05:42;;;;;;;5.28;2.08;;;;;;;8.27;88.25;100049.44;5033642;28;20045;-90
2021/11/05 07:08:09;;;;;;;4.05;1.90;;;;;;;8.23;88.17;100042.69;5033640;28;20072;-89
2021/11/05 07:10:36;;;;;;;4.82;1.75;;;;;;;8.19;88.76;100059.31;5039335;28;20049;-89
2021/11/05 07:13:03;;;;;;;5.68;2.17;;;;;;;8.35;89.33;100053.38;5034676;28;20480;-89
2021/11/05 07:15:29;;;;;;;5.28;2.13;;;;;;;8.34;89.89;100064.66;5036694;28;20403;-88
2021/11/05 07:17:57;;;;;;;5.97;2.05;;;;;;;8.37;89.97;100069.78;5032611;28;20071;-89
2021/11/05 07:20:24;;;;;;;5.40;2.40;;;;;;;8.43;90.32;100075.63;5035862;28;20049;-89
2021/11/05 07:22:51;;;;;;;3.58;2.17;;;;;;;8.54;90.49;100076.81;5033374;28;20091;-92
2021/11/05 07:25:18;;;;;;;6.03;2.17;;;;;;;8.80;87.90;100074.81;5033734;28;20088;-90
2021/11/05 07:27:45;;;;;;;6.88;2.33;;;;;;;8.74;87.58;100073.34;5036284;28;20049;-89
2021/11/05 07:30:14;;;;;;;2.70;2.08;;;;;;;8.71;87.47;100073.47;5031306;28;20433;-88
2021/11/05 07:32:47;;;;;;;17.00;3.63;;;;;;;8.76;86.02;100079.31;5033125;28;20053;-88
2021/11/05 07:35:18;;;;;;;7.60;2.67;;;;;;;8.85;83.86;100078.91;5040085;28;20073;-89
2021/11/05 07:37:46;;;;;;;5.57;3.20;;;;;;;9.04;81.66;100078.88;5033006;28;20507;-84
2021/11/05 07:40:14;;;;;;;5.22;3.33;;;;;;;9.13;81.36;100082.81;5029288;28;20042;-83
2021/11/05 07:42:42;;;;;;;6.28;2.88;;;;;;;9.23;81.67;100089.28;5033041;28;20057;-83
2021/11/05 07:45:11;;;;;;;8.23;3.97;;;;;;;9.21;81.44;100085.06;5020031;28;20122;-82
2021/11/05 07:47:39;;;;;;;7.00;3.67;;;;;;;9.27;81.79;100101.25;5027520;28;20059;-83
2021/11/05 07:50:08;;;;;;;4.07;3.35;;;;;;;9.29;80.56;100099.41;5029960;28;20058;-83
2021/11/05 07:52:35;;;;;;;4.68;2.67;;;;;;;9.26;80.29;100104.72;5030745;28;20045;-83
2021/11/05 07:55:04;;;;;;;5.43;3.08;;;;;;;9.32;81.03;100109.66;5029749;28;20047;-84
2021/11/05 07:57:30;;;;;;;7.00;3.67;;;;;;;9.14;81.69;100110.50;5032833;28;20037;-85
2021/11/05 07:59:58;;;;;;;5.00;2.70;;;;;;;9.25;81.12;100123.84;5043817;28;20033;-84
2021/11/05 08:02:26;;;;;;;8.13;3.53;;;;;;;9.27;81.16;100126.38;5034643;28;20045;-83
2021/11/05 08:04:52;;;;;;;6.30;3.25;;;;;;;9.12;81.10;100121.00;5045282;28;20041;-83
2021/11/05 08:07:21;;;;;;;4.10;3.03;;;;;;;9.09;81.47;100125.47;5033428;28;20056;-83
2021/11/05 08:09:50;;;;;;;4.05;2.92;;;;;;;9.11;81.96;100134.06;5034416;28;20180;-85
2021/11/05 08:12:17;;;;;;;2.97;2.60;;;;;;;9.00;82.20;100133.69;5036330;28;20041;-85
2021/11/05 08:14:44;;;;;;;7.05;4.32;;;;;;;8.99;83.00;100139.81;5037371;28;20037;-84
2021/11/05 08:17:12;;;;;;;8.13;2.85;;;;;;;9.01;83.56;100135.41;5030994;28;20038;-84
2021/11/05 08:19:39;;;;;;;3.97;3.00;;;;;;;9.05;83.29;100145.56;5037889;28;20037;-84
2021/11/05 08:22:06;;;;;;;7.72;4.65;;;;;;;9.15;83.33;100146.00;5043432;28;20448;-82
2021/11/05 08:24:33;;;;;;;5.95;3.90;;;;;;;9.13;83.02;100151.28;5038603;28;20373;-85
2021/11/05 08:27:00;;;;;;;4.93;3.33;;;;;;;9.34;82.77;100153.81;5039004;28;20045;-85
2021/11/05 08:29:26;;;;;;;7.82;3.40;;;;;;;9.20;83.05;100154.44;5040896;28;20042;-84
2021/11/05 08:31:54;;;;;;;4.70;3.58;;;;;;;9.25;83.25;100165.47;5044773;28;20064;-83
2021/11/05 08:34:20;;;;;;;3.42;3.08;;;;;;;9.18;83.09;100164.06;5045070;28;20037;-84
2021/11/05 08:36:47;;;;;;;10.43;3.65;;;;;;;9.43;83.25;100169.84;5033253;28;20049;-85
2021/11/05 08:39:14;;;;;;;4.95;3.60;;;;;;;9.37;83.54;100167.50;5042495;28;20044;-84
2021/11/05 08:41:41;;;;;;;4.30;3.20;;;;;;;9.40;83.69;100176.94;5032650;28;20037;-83
2021/11/05 08:44:10;;;;;;;4.65;3.63;;;;;;;9.60;83.07;100176.03;5033011;28;20095;-84
2021/11/05 08:46:38;;;;;;;8.73;4.05;;;;;;;9.78;82.80;100182.94;5032696;28;20495;-85
2021/11/05 08:49:11;;;;;;;6.82;4.10;;;;;;;9.84;82.78;100189.63;5032524;28;20053;-85
2021/11/05 08:51:45;;;;;;;10.00;5.28;;;;;;;9.97;81.93;100190.72;5026042;28;20049;-83
2021/11/05 08:54:13;;;;;;;8.00;5.50;;;;;;;9.87;82.70;100189.50;5033122;28;20049;-85
2021/11/05 08:56:40;;;;;;;6.57;5.38;;;;;;;9.86;83.41;100188.66;5033163;28;20291;-86
2021/11/05 08:59:11;;;;;;;5.55;4.78;;;;;;;9.88;82.96;100199.81;5033063;28;20064;-85
2021/11/05 09:01:38;;;;;;;8.77;5.10;;;;;;;10.10;82.57;100196.19;5027797;28;20057;-82
2021/11/05 09:04:05;;;;;;;6.10;5.43;;;;;;;10.18;82.30;100196.66;5033228;28;20562;-82
2021/11/05 09:06:32;;;;;;;6.82;5.57;;;;;;;10.18;81.35;100201.88;5030913;28;20443;-83
2021/11/05 09:09:00;;;;;;;6.72;4.70;;;;;;;10.14;81.06;100203.78;5033457;28;20042;-86
2021/11/05 09:11:29;;;;;;;6.97;4.90;;;;;;;10.33;78.92;100202.88;5044308;28;20426;-87
2021/11/05 09:13:57;;;;;;;6.22;4.93;;;;;;;10.53;79.28;100213.16;5034656;28;20045;-83
2021/11/05 09:16:27;;;;;;;5.82;5.07;;;;;;;10.46;79.64;100214.41;5034242;28;20048;-86
2021/11/05 09:19:01;;;;;;;5.15;4.68;;;;;;;10.55;79.06;100218.31;5032039;28;20118;-85
2021/11/05 09:21:32;;;;;;;5.07;4.45;;;;;;;10.71;78.31;100221.84;5031201;28;20476;-83
2021/11/05 09:24:00;;;;;;;6.13;4.28;;;;;;;10.52;77.31;100218.47;5036480;28;20049;-87
2021/11/05 09:26:27;;;;;;;5.53;4.68;;;;;;;10.99;75.95;100222.09;5038588;28;20475;-86
2021/11/05 09:28:54;;;;;;;5.93;4.65;;;;;;;10.88;76.96;100226.19;5039464;28;20455;-82
2021/11/05 09:31:22;;;;;;;9.73;5.45;;;;;;;10.78;76.68;100233.63;5038855;28;20046;-84
2021/11/05 09:33:50;;;;;;;6.55;5.28;;;;;;;10.81;77.11;100236.06;5031024;28;20041;-84
2021/11/05 09:36:17;;;;;;;6.43;5.82;;;;;;;10.92;76.69;100239.00;5037845;28;20091;-85
2021/11/05 09:38:46;;;;;;;5.53;4.90;;;;;;;11.10;76.46;100241.56;5032358;28;20048;-84
2021/11/05 09:41:14;;;;;;;7.35;4.60;;;;;;;10.89;74.53;100246.97;5032033;28;20051;-86
2021/11/05 09:43:42;;;;;;;7.20;5.55;;;;;;;10.64;75.02;100239.53;5024740;28;20056;-85
2021/11/05 09:46:09;;;;;;;5.55;4.68;;;;;;;10.98;73.96;100243.03;5040230;28;20041;-84
2021/11/05 09:48:39;;;;;;;6.30;5.05;;;;;;;10.91;75.25;100244.25;5033091;28;20079;-83
2021/11/05 09:51:08;;;;;;;5.80;4.93;;;;;;;11.02;72.97;100245.44;5039385;28;20180;-86
2021/11/05 09:53:38;;;;;;;7.15;5.63;;;;;;;11.38;71.47;100247.00;5037500;28;20395;-87
2021/11/05 09:56:13;;;;;;;6.95;5.18;;;;;;;11.42;72.19;100256.38;5040203;28;20523;-87
2021/11/05 09:58:42;;;;;;;5.90;5.13;;;;;;;11.37;73.12;100249.69;5031759;28;20060;-84
2021/11/05 10:01:11;;;;;;;6.13;4.53;;;;;;;11.26;72.60;100251.09;5044296;28;20038;-84
2021/11/05 10:03:38;;;;;;;4.63;4.22;;;;;;;11.38;73.34;100247.00;5028994;28;20049;-80
2021/11/05 10:06:12;;;;;;;7.38;5.20;;;;;;;11.22;73.53;100240.91;5030972;28;20049;-80
2021/11/05 10:08:39;;;;;;;5.05;4.65;;;;;;;11.64;72.64;100237.78;5037096;28;20120;-83
2021/11/05 10:11:29;;;;;;;4.88;4.32;;;;;;;11.70;73.69;100244.44;5032869;28;20063;-82
2021/11/05 10:13:59;;;;;;;4.40;4.00;;;;;;;12.38;67.84;100239.75;5025359;28;20411;-81
2021/11/05 10:16:27;;;;;;;5.22;4.50;;;;;;;12.36;66.44;100230.31;5042066;28;20055;-84
2021/11/05 10:18:55;;;;;;;6.47;4.30;;;;;;;12.69;66.05;100225.75;5039087;28;20041;-82
2021/11/05 10:21:23;;;;;;;5.43;4.55;;;;;;;12.25;68.06;100228.31;5034702;28;20049;-80
2021/11/05 10:23:50;;;;;;;5.88;4.05;;;;;;;12.61;67.91;100227.94;5039722;28;20053;-82
2021/11/05 10:26:28;;;;;;;5.88;4.97;;;;;;;12.72;66.35;100227.31;5041261;28;20075;-81
2021/11/05 10:28:55;;;;;;;4.72;3.90;;;;;;;12.42;65.88;100236.03;5037328;28;20045;-82
2021/11/05 10:31:36;;;;;;;5.75;5.10;;;;;;;12.75;63.88;100232.38;5032482;28;20053;-84
2021/11/05 10:34:03;;;;;;;5.75;4.13;;;;;;;12.42;65.98;100230.81;5031447;28;20072;-83
2021/11/05 10:36:30;;;;;;;5.43;4.70;;;;;;;12.43;66.42;100223.81;5043231;28;20064;-85
2021/11/05 10:39:03;;;;;;;5.07;4.32;;;;;;;12.57;66.76;100229.09;5039996;28;20046;-85
2021/11/05 10:41:31;;;;;;;5.18;4.68;;;;;;;12.49;64.63;100233.91;5033126;28;20480;-81
2021/11/05 10:44:01;;;;;;;5.63;4.20;;;;;;;12.40;64.27;100232.66;5032537;28;20072;-82
2021/11/05 10:46:39;;;;;;;4.32;3.58;;;;;;;12.77;61.70;100230.50;5027236;28;20648;-81
2021/11/05 10:49:21;;;;;;;5.00;4.10;;;;;;;12.56;59.59;100233.44;5036016;28;20491;-80
2021/11/05 10:51:48;;;;;;;6.88;5.40;;;;;;;12.39;61.63;100235.38;5034980;28;20064;-83
2021/11/05 10:54:19;;;;;;;4.10;3.70;;;;;;;12.34;64.25;100235.63;5035024;28;20060;-80
2021/11/05 10:56:46;;;;;;;5.47;4.55;;;;;;;12.52;65.31;100236.34;5035056;28;20076;-90
2021/11/05 10:59:14;;;;;;;5.00;4.50;;;;;;;12.70;64.88;100232.66;5029587;28;20100;-87
2021/11/05 11:01:43;;;;;;;6.90;4.78;;;;;;;12.69;65.03;100233.59;5029100;28;21256;-94
2021/11/05 11:04:11;;;;;;;5.18;4.57;;;;;;;12.84;64.41;100229.22;5031784;28;20096;-96
2021/11/05 11:06:46;;;;;;;5.38;4.88;;;;;;;12.40;64.79;100227.44;5036751;28;20049;-95
2021/11/05 11:09:19;;;;;;;8.45;5.18;;;;;;;12.33;64.11;100231.34;5031880;28;20128;-95
2021/11/05 11:11:49;;;;;;;5.68;5.05;;;;;;;12.17;66.00;100226.13;5044015;28;20049;-96
2021/11/05 11:14:20;;;;;;;7.38;5.07;;;;;;;12.45;66.68;100229.78;5035688;28;20045;-92
2021/11/05 11:16:48;;;;;;;5.40;4.90;;;;;;;12.10;66.15;100224.81;5042340;28;20064;-96
2021/11/05 11:19:21;;;;;;;7.63;5.53;;;;;;;12.25;66.02;100228.31;5045870;28;20041;-96
2021/11/05 11:21:53;;;;;;;4.80;4.32;;;;;;;12.17;64.36;100230.53;5030657;28;20128;-96
2021/11/05 11:24:22;;;;;;;6.15;5.55;;;;;;;12.47;63.50;100226.16;5044156;28;20056;-96
2021/11/05 11:26:55;;;;;;;5.93;5.20;;;;;;;12.36;64.59;100236.41;5046786;28;20041;-95
2021/11/05 11:29:24;;;;;;;8.10;5.05;;;;;;;12.19;65.92;100226.88;5038417;28;20047;-96
2021/11/05 11:31:55;;;;;;;6.00;5.47;;;;;;;11.95;67.49;100225.66;5044388;28;20065;-96
2021/11/05 11:34:23;;;;;;;6.75;5.65;;;;;;;12.34;66.11;100217.31;5051908;28;20080;-95
2021/11/05 11:36:59;;;;;;;5.78;5.18;;;;;;;11.87;67.88;100213.03;5046947;28;20033;-96
2021/11/05 11:39:31;;;;;;;6.38;5.78;;;;;;;12.24;68.45;100216.16;5034158;28;20089;-96